Time;durP1;ratioP1;P1;durP2;ratioP2;P2;SDS_P1;SDS_P2;PMS_P1;PMS_P2;Temp;Humidity;BMP_temperature;BMP_pressure;BME280_temperature;BME280_humidity;BME280_pressure;Samples;Min_cycle;Max_cycle;Signal;HPM_P1;HPM_P2
2022/07/27 00:01:10;;;;;;;1.90;1.80;;;17.20;99.90;;;;;;5049951;28;20433;-48
2022/07/27 00:03:37;;;;;;;2.93;2.70;;;17.30;99.90;;;;;;5057547;28;20474;-50
2022/07/27 00:06:05;;;;;;;3.00;2.80;;;17.50;99.90;;;;;;5048224;28;20419;-49
2022/07/27 00:08:33;;;;;;;2.70;2.50;;;17.50;99.90;;;;;;5051206;28;20429;-49
2022/07/27 00:11:00;;;;;;;2.50;1.73;;;17.50;99.90;;;;;;5046769;28;20443;-51
2022/07/27 00:13:27;;;;;;;2.83;2.63;;;17.50;99.90;;;;;;5051818;28;20643;-51
2022/07/27 00:15:55;;;;;;;2.97;2.77;;;17.50;99.90;;;;;;5048977;28;20619;-54
2022/07/27 00:18:22;;;;;;;3.00;2.70;;;17.40;99.90;;;;;;5051303;28;20623;-52
2022/07/27 00:20:50;;;;;;;2.70;2.50;;;17.50;99.90;;;;;;5049144;28;20412;-52
2022/07/27 00:23:17;;;;;;;2.80;2.60;;;17.50;99.90;;;;;;5049494;28;20475;-51
2022/07/27 00:25:44;;;;;;;2.47;2.27;;;17.40;99.90;;;;;;5050023;28;20434;-49
2022/07/27 00:28:12;;;;;;;2.37;2.17;;;17.30;99.90;;;;;;5048800;28;20679;-52
2022/07/27 00:30:39;;;;;;;3.07;2.80;;;17.30;99.90;;;;;;5050288;28;20432;-50
2022/07/27 00:33:07;;;;;;;2.70;2.50;;;17.40;99.90;;;;;;5049686;28;20434;-51
2022/07/27 00:35:34;;;;;;;3.77;3.00;;;17.20;99.90;;;;;;5050438;28;20465;-49
2022/07/27 00:38:02;;;;;;;2.70;2.27;;;17.30;99.90;;;;;;5048868;28;20549;-49
2022/07/27 00:40:30;;;;;;;4.53;2.80;;;17.30;99.90;;;;;;5050400;28;20763;-48
2022/07/27 00:42:57;;;;;;;3.27;2.73;;;17.30;99.90;;;;;;5059134;28;20655;-49
2022/07/27 00:45:24;;;;;;;2.63;2.40;;;17.40;99.90;;;;;;5075515;28;20630;-53
2022/07/27 00:47:52;;;;;;;3.03;2.73;;;17.30;99.90;;;;;;5071685;28;20982;-51
2022/07/27 00:50:21;;;;;;;3.60;3.23;;;17.30;99.90;;;;;;5076450;28;20495;-49
2022/07/27 00:52:49;;;;;;;2.70;2.50;;;17.10;99.90;;;;;;5046916;28;20440;-48
2022/07/27 00:55:16;;;;;;;4.60;3.00;;;17.00;99.90;;;;;;5048417;28;20979;-51
2022/07/27 00:57:46;;;;;;;4.20;3.43;;;17.10;99.90;;;;;;5052089;28;20455;-54
2022/07/27 01:00:26;;;;;;;3.23;3.00;;;17.10;99.90;;;;;;5045768;28;20618;-49
2022/07/27 01:02:54;;;;;;;3.60;3.30;;;17.10;99.90;;;;;;5051731;28;20499;-52
2022/07/27 01:05:23;;;;;;;4.13;3.80;;;16.90;99.90;;;;;;5044659;28;20433;-53
2022/07/27 01:08:03;;;;;;;4.70;4.33;;;17.00;99.90;;;;;;5051371;28;20463;-46
2022/07/27 01:10:30;;;;;;;4.20;3.90;;;17.20;99.90;;;;;;5043855;28;20434;-52
2022/07/27 01:12:58;;;;;;;5.70;3.73;;;17.20;99.90;;;;;;5051194;28;20448;-52
2022/07/27 01:15:25;;;;;;;3.90;3.60;;;17.30;99.90;;;;;;5051122;28;20478;-49
2022/07/27 01:17:53;;;;;;;4.90;4.50;;;17.20;99.90;;;;;;5046495;28;20453;-46
2022/07/27 01:20:20;;;;;;;5.33;4.53;;;17.20;99.90;;;;;;5052016;28;20451;-47
2022/07/27 01:22:47;;;;;;;5.17;4.53;;;17.20;99.90;;;;;;5059198;28;20404;-48
2022/07/27 01:25:14;;;;;;;9.47;3.77;;;17.20;99.90;;;;;;5060164;28;20814;-47
2022/07/27 01:27:42;;;;;;;3.87;3.57;;;17.10;99.90;;;;;;5046851;28;20697;-48
2022/07/27 01:30:31;;;;;;;4.43;3.70;;;17.20;99.90;;;;;;5073631;28;20433;-49
2022/07/27 01:33:03;;;;;;;4.43;4.10;;;17.20;99.90;;;;;;5048751;28;20400;-49
2022/07/27 01:35:31;;;;;;;4.30;3.93;;;17.00;99.90;;;;;;5051684;28;20489;-52
2022/07/27 01:37:59;;;;;;;5.43;4.13;;;17.10;99.90;;;;;;5047640;28;20461;-47
2022/07/27 01:40:26;;;;;;;3.63;3.20;;;17.20;99.90;;;;;;5049730;28;20692;-50
2022/07/27 01:42:53;;;;;;;3.60;3.30;;;17.20;99.90;;;;;;5049320;28;20433;-46
2022/07/27 01:45:21;;;;;;;4.80;3.60;;;17.30;99.90;;;;;;5048196;28;20449;-48
2022/07/27 01:47:48;;;;;;;3.93;3.53;;;17.20;99.90;;;;;;5048769;28;20488;-49
2022/07/27 01:50:16;;;;;;;5.53;3.93;;;17.30;99.90;;;;;;5049081;28;20447;-47
2022/07/27 01:52:43;;;;;;;4.80;3.93;;;17.30;99.90;;;;;;5048701;28;20437;-50
2022/07/27 01:55:11;;;;;;;7.27;4.07;;;17.30;99.90;;;;;;5048476;28;20449;-50
2022/07/27 01:57:38;;;;;;;3.53;3.23;;;17.40;99.90;;;;;;5050235;28;20464;-48
2022/07/27 02:00:09;;;;;;;6.33;3.60;;;17.40;99.90;;;;;;5047405;28;20871;-48
2022/07/27 02:02:37;;;;;;;3.70;3.40;;;17.40;99.90;;;;;;5050235;28;20444;-46
2022/07/27 02:05:05;;;;;;;4.20;3.80;;;17.10;99.90;;;;;;5047123;28;20543;-47
2022/07/27 02:07:33;;;;;;;3.87;3.57;;;16.90;99.90;;;;;;5049896;28;20506;-50
2022/07/27 02:10:00;;;;;;;4.97;3.93;;;16.80;99.90;;;;;;5047033;28;20459;-50
2022/07/27 02:12:36;;;;;;;4.30;3.30;;;16.70;99.90;;;;;;5051093;28;20641;-49
2022/07/27 02:15:13;;;;;;;4.00;3.80;;;16.90;99.90;;;;;;5048213;28;20437;-48
2022/07/27 02:17:42;;;;;;;3.83;3.53;;;17.00;99.90;;;;;;5047478;28;20460;-53
2022/07/27 02:20:12;;;;;;;5.47;4.27;;;17.20;99.90;;;;;;5045564;28;20420;-52
2022/07/27 02:22:39;;;;;;;3.93;3.53;;;17.20;99.90;;;;;;5052466;28;20479;-48
2022/07/27 02:25:08;;;;;;;4.10;3.37;;;17.30;99.90;;;;;;5050096;28;20469;-52
2022/07/27 02:27:35;;;;;;;4.60;4.20;;;17.30;99.90;;;;;;5055378;28;20461;-50
2022/07/27 02:30:04;;;;;;;3.70;3.40;;;17.40;99.90;;;;;;5050583;28;20492;-51
2022/07/27 02:32:31;;;;;;;3.80;3.50;;;17.50;99.90;;;;;;5061229;28;20626;-51
2022/07/27 02:34:59;;;;;;;3.53;3.27;;;17.60;99.90;;;;;;5067049;28;20416;-52
2022/07/27 02:37:45;;;;;;;4.50;3.53;;;17.70;99.90;;;;;;5052926;28;20807;-50
2022/07/27 02:40:14;;;;;;;5.40;3.97;;;17.60;99.90;;;;;;5051037;28;20636;-50
2022/07/27 02:42:42;;;;;;;4.50;4.20;;;17.60;99.90;;;;;;5052354;28;20448;-49
2022/07/27 02:45:09;;;;;;;4.37;3.97;;;17.40;99.90;;;;;;5050626;28;20481;-50
2022/07/27 02:47:38;;;;;;;4.90;4.13;;;17.30;99.90;;;;;;5055242;28;20463;-50
2022/07/27 02:50:08;;;;;;;3.93;3.57;;;17.10;99.90;;;;;;5050626;28;20412;-49
2022/07/27 02:52:36;;;;;;;4.47;4.03;;;17.00;99.90;;;;;;5052846;28;20432;-47
2022/07/27 02:55:04;;;;;;;5.73;5.07;;;17.20;99.90;;;;;;5049927;28;20448;-53
2022/07/27 02:57:34;;;;;;;3.57;3.27;;;17.30;99.90;;;;;;5052269;28;20506;-51
2022/07/27 03:00:07;;;;;;;3.27;3.07;;;17.20;99.90;;;;;;5050884;28;20639;-45
2022/07/27 03:02:35;;;;;;;4.20;3.80;;;17.20;99.90;;;;;;5052709;28;20408;-50
2022/07/27 03:05:06;;;;;;;4.00;3.60;;;17.30;99.90;;;;;;5053690;28;20492;-49
2022/07/27 03:07:34;;;;;;;7.83;4.17;;;17.30;99.90;;;;;;5048322;28;20450;-50
2022/07/27 03:10:02;;;;;;;4.30;3.90;;;17.40;99.90;;;;;;5054056;28;20407;-51
2022/07/27 03:12:29;;;;;;;5.47;4.97;;;17.40;99.90;;;;;;5047571;28;20402;-49
2022/07/27 03:14:56;;;;;;;10.87;3.90;;;17.30;99.90;;;;;;5053824;28;20444;-49
2022/07/27 03:17:23;;;;;;;4.53;4.20;;;17.40;99.90;;;;;;5046044;28;20464;-53
2022/07/27 03:19:50;;;;;;;4.93;4.43;;;17.40;99.90;;;;;;5057142;28;20568;-50
2022/07/27 03:22:18;;;;;;;4.90;4.40;;;17.40;99.90;;;;;;5067833;28;20439;-51
2022/07/27 03:24:45;;;;;;;4.73;3.80;;;17.60;99.90;;;;;;5077128;28;20465;-54
2022/07/27 03:27:13;;;;;;;6.17;3.70;;;17.60;99.90;;;;;;5053258;28;20625;-49
2022/07/27 03:29:40;;;;;;;4.63;3.80;;;17.50;99.90;;;;;;5046037;28;20438;-51
2022/07/27 03:32:07;;;;;;;3.93;3.70;;;17.70;99.90;;;;;;5053259;28;20429;-52
2022/07/27 03:34:34;;;;;;;3.73;3.30;;;17.80;99.90;;;;;;5072949;28;20422;-50
2022/07/27 03:37:02;;;;;;;3.77;3.47;;;18.00;99.90;;;;;;5056613;28;20460;-51
2022/07/27 03:39:29;;;;;;;5.97;5.43;;;18.00;99.90;;;;;;5052707;28;20443;-51
2022/07/27 03:41:56;;;;;;;13.40;4.43;;;18.00;99.90;;;;;;5047638;28;20442;-49
2022/07/27 03:44:23;;;;;;;4.70;4.30;;;18.10;99.90;;;;;;5053047;28;20803;-49
2022/07/27 03:46:51;;;;;;;5.07;4.67;;;18.10;99.90;;;;;;5045888;28;20468;-49
2022/07/27 03:49:18;;;;;;;4.17;3.67;;;18.10;99.90;;;;;;5053266;28;20436;-51
2022/07/27 03:51:45;;;;;;;5.70;4.20;;;18.00;99.90;;;;;;5049908;28;20483;-47
2022/07/27 03:54:13;;;;;;;3.90;3.60;;;18.00;99.90;;;;;;5071054;28;20403;-52
2022/07/27 03:56:40;;;;;;;3.57;3.37;;;18.00;99.90;;;;;;5067265;28;20469;-50
2022/07/27 03:59:07;;;;;;;4.00;3.60;;;18.20;99.90;;;;;;5049083;28;20445;-50
2022/07/27 04:01:35;;;;;;;4.43;4.03;;;18.30;99.90;;;;;;5051528;28;20674;-52
2022/07/27 04:04:02;;;;;;;3.87;3.57;;;18.40;99.90;;;;;;5047346;28;20504;-54
2022/07/27 04:06:30;;;;;;;6.30;3.27;;;18.40;99.90;;;;;;5051527;28;20452;-50
2022/07/27 04:08:57;;;;;;;5.40;5.00;;;18.40;99.90;;;;;;5049464;28;20501;-53
2022/07/27 04:11:35;;;;;;;4.57;4.17;;;18.30;99.90;;;;;;5054114;28;20606;-49
2022/07/27 04:14:09;;;;;;;3.37;3.17;;;18.40;99.90;;;;;;5049266;28;20646;-48
2022/07/27 04:16:40;;;;;;;8.60;4.30;;;18.30;99.90;;;;;;5053222;28;20717;-52
2022/07/27 04:19:07;;;;;;;4.30;3.90;;;18.40;99.90;;;;;;5031670;28;20479;-51
2022/07/27 04:21:35;;;;;;;4.63;3.90;;;18.50;99.90;;;;;;5049832;28;20498;-49
2022/07/27 04:24:02;;;;;;;4.23;3.83;;;18.70;99.90;;;;;;5047731;28;20460;-52
2022/07/27 04:26:30;;;;;;;5.23;4.37;;;18.80;99.90;;;;;;5050277;28;20426;-51
2022/07/27 04:28:57;;;;;;;4.33;4.00;;;18.90;99.90;;;;;;5047493;28;20499;-51
2022/07/27 04:31:24;;;;;;;4.20;3.80;;;19.00;99.90;;;;;;5049468;28;20576;-50
2022/07/27 04:33:52;;;;;;;3.10;2.90;;;19.10;99.90;;;;;;5052340;28;20429;-47
2022/07/27 04:36:19;;;;;;;3.60;3.30;;;19.20;99.90;;;;;;5074836;28;20497;-48
2022/07/27 04:38:47;;;;;;;5.60;4.10;;;19.00;99.90;;;;;;5048595;28;20749;-50
2022/07/27 04:41:14;;;;;;;3.10;2.90;;;19.00;99.90;;;;;;5045913;28;20507;-50
2022/07/27 04:43:41;;;;;;;4.37;4.00;;;18.80;99.90;;;;;;5051473;28;20456;-51
2022/07/27 04:46:08;;;;;;;4.07;3.50;;;19.10;99.90;;;;;;5046165;28;20712;-53
2022/07/27 04:48:41;;;;;;;4.90;3.60;;;19.10;99.90;;;;;;5050749;28;20521;-49
2022/07/27 04:51:16;;;;;;;4.60;4.20;;;19.10;99.90;;;;;;5056044;28;20428;-53
2022/07/27 04:53:43;;;;;;;3.23;2.90;;;19.30;99.90;;;;;;5046764;28;20428;-52
2022/07/27 04:56:25;;;;;;;3.80;3.50;;;19.50;99.90;;;;;;5055582;28;20794;-53
2022/07/27 04:58:54;;;;;;;4.20;3.80;;;19.60;99.90;;;;;;5046287;28;20432;-49
2022/07/27 05:01:24;;;;;;;4.10;3.80;;;19.40;99.90;;;;;;5054394;28;20411;-49
2022/07/27 05:03:57;;;;;;;6.20;3.83;;;19.50;99.90;;;;;;5045252;28;20403;-49
2022/07/27 05:06:25;;;;;;;6.17;4.23;;;19.60;99.90;;;;;;5045382;28;20822;-49
2022/07/27 05:08:52;;;;;;;6.20;4.70;;;19.80;99.90;;;;;;5041963;28;20412;-48
2022/07/27 05:11:19;;;;;;;4.27;3.70;;;19.90;99.90;;;;;;5042114;28;20506;-48
2022/07/27 05:13:47;;;;;;;4.37;3.93;;;19.70;99.90;;;;;;5041775;28;20428;-48
2022/07/27 05:16:14;;;;;;;4.10;3.80;;;20.00;99.90;;;;;;5052181;28;20843;-47
2022/07/27 05:18:42;;;;;;;3.30;3.10;;;20.30;99.90;;;;;;5050251;28;20455;-48
2022/07/27 05:21:09;;;;;;;7.03;4.67;;;20.90;99.90;;;;;;5050141;28;20608;-49
2022/07/27 05:23:37;;;;;;;7.83;4.97;;;21.50;99.90;;;;;;5049273;28;20447;-50
2022/07/27 05:26:04;;;;;;;4.20;3.33;;;21.90;99.90;;;;;;5047607;28;20796;-49
2022/07/27 05:28:31;;;;;;;4.93;4.43;;;22.10;99.90;;;;;;5048094;28;20421;-51
2022/07/27 05:30:59;;;;;;;3.23;2.93;;;21.70;99.90;;;;;;5047727;28;20503;-46
2022/07/27 05:33:26;;;;;;;3.77;3.33;;;21.60;99.90;;;;;;5048531;28;20797;-50
2022/07/27 05:35:58;;;;;;;3.20;2.90;;;21.20;99.90;;;;;;5048629;28;20420;-50
2022/07/27 05:38:25;;;;;;;5.10;3.50;;;21.30;99.90;;;;;;5048281;28;20417;-50
2022/07/27 05:40:52;;;;;;;3.73;3.23;;;21.50;99.90;;;;;;5047729;28;20487;-50
2022/07/27 05:43:19;;;;;;;6.07;3.43;;;21.80;99.90;;;;;;5047662;28;20438;-50
2022/07/27 05:45:47;;;;;;;3.70;3.30;;;22.10;99.90;;;;;;5045786;28;20446;-49
2022/07/27 05:48:14;;;;;;;3.93;3.60;;;22.40;99.90;;;;;;5047605;28;20681;-49
2022/07/27 05:50:42;;;;;;;5.60;2.70;;;22.60;99.90;;;;;;5050458;28;20457;-48
2022/07/27 05:53:09;;;;;;;2.77;2.57;;;22.90;99.90;;;;;;5046926;28;20441;-55
2022/07/27 05:55:36;;;;;;;3.07;2.87;;;22.90;99.90;;;;;;5049706;28;20445;-52
2022/07/27 05:58:05;;;;;;;3.17;2.83;;;22.90;99.90;;;;;;5045993;28;20646;-49
2022/07/27 06:00:32;;;;;;;3.90;3.50;;;22.90;99.90;;;;;;5052853;28;20966;-51
2022/07/27 06:02:59;;;;;;;4.30;3.30;;;23.00;99.90;;;;;;5049783;28;20414;-49
2022/07/27 06:05:26;;;;;;;2.80;2.40;;;23.20;99.90;;;;;;5052086;28;20547;-50
2022/07/27 06:08:02;;;;;;;2.80;2.50;;;23.10;99.90;;;;;;5044865;28;20430;-53
2022/07/27 06:10:31;;;;;;;3.80;2.97;;;23.20;99.90;;;;;;5046917;28;20496;-49
2022/07/27 06:13:01;;;;;;;9.17;3.23;;;23.00;99.90;;;;;;5050395;28;20460;-50
2022/07/27 06:15:37;;;;;;;2.00;1.90;;;23.40;99.90;;;;;;5051914;28;20431;-52
2022/07/27 06:18:16;;;;;;;1.93;1.80;;;23.30;99.90;;;;;;5062776;28;20465;-55
2022/07/27 06:20:44;;;;;;;2.80;2.60;;;23.10;99.90;;;;;;5045881;28;20420;-48
2022/07/27 06:23:12;;;;;;;2.73;2.13;;;23.10;99.90;;;;;;5049796;28;20405;-52
2022/07/27 06:25:39;;;;;;;4.50;2.60;;;23.30;99.90;;;;;;5061497;28;20476;-49
2022/07/27 06:28:07;;;;;;;2.97;2.67;;;23.10;99.90;;;;;;5053926;28;20487;-49
2022/07/27 06:30:35;;;;;;;2.70;2.47;;;23.10;99.90;;;;;;5052364;28;20433;-50
2022/07/27 06:33:05;;;;;;;4.47;3.30;;;23.20;99.90;;;;;;5057838;28;20449;-50
2022/07/27 06:35:33;;;;;;;2.53;2.33;;;23.30;99.90;;;;;;5050564;28;20412;-53
2022/07/27 06:38:01;;;;;;;2.93;2.73;;;23.50;99.90;;;;;;5055189;28;20818;-47
2022/07/27 06:40:30;;;;;;;5.93;2.87;;;23.60;99.90;;;;;;5049495;28;20444;-47
2022/07/27 06:42:58;;;;;;;2.73;2.53;;;23.80;99.90;;;;;;5045699;28;20434;-50
2022/07/27 06:45:26;;;;;;;2.40;2.20;;;24.00;99.90;;;;;;5050333;28;20535;-53
2022/07/27 06:47:53;;;;;;;3.20;2.90;;;24.10;99.90;;;;;;5054115;28;20539;-48
2022/07/27 06:50:21;;;;;;;4.40;3.03;;;23.90;99.90;;;;;;5050314;28;20408;-51
2022/07/27 06:52:48;;;;;;;2.43;2.23;;;23.90;99.90;;;;;;5051336;28;20443;-49
2022/07/27 06:55:16;;;;;;;2.50;2.30;;;24.00;99.90;;;;;;5053925;28;20411;-51
2022/07/27 06:57:45;;;;;;;1.83;1.73;;;24.20;99.90;;;;;;5055689;28;20479;-47
2022/07/27 07:00:13;;;;;;;2.40;1.90;;;24.20;99.90;;;;;;5053698;28;20418;-50
2022/07/27 07:02:58;;;;;;;3.40;2.00;;;24.10;99.90;;;;;;5053042;28;20438;-49
2022/07/27 07:05:25;;;;;;;2.20;2.00;;;24.10;99.90;;;;;;5053684;28;20671;-46
2022/07/27 07:07:54;;;;;;;1.60;1.50;;;23.90;99.90;;;;;;5045933;28;20449;-49
2022/07/27 07:10:23;;;;;;;1.70;1.60;;;23.80;99.90;;;;;;5048138;28;20412;-49
2022/07/27 07:12:54;;;;;;;2.33;1.70;;;23.80;99.90;;;;;;5052700;28;20440;-52
2022/07/27 07:15:25;;;;;;;3.53;2.07;;;23.60;99.90;;;;;;5050634;28;20445;-47
2022/07/27 07:17:53;;;;;;;3.60;3.30;;;25.50;99.90;;;;;;5053304;28;20459;-51
2022/07/27 07:20:20;;;;;;;4.10;2.70;;;29.00;99.90;;;;;;5052377;28;20474;-51
2022/07/27 07:22:48;;;;;;;4.00;2.97;;;29.50;99.90;;;;;;5049956;28;20530;-48
2022/07/27 07:25:17;;;;;;;3.07;2.30;;;28.50;99.90;;;;;;5050846;28;20857;-53
2022/07/27 07:27:44;;;;;;;2.67;2.47;;;27.60;99.90;;;;;;5049386;28;20525;-54
2022/07/27 07:30:12;;;;;;;2.87;2.60;;;26.80;99.90;;;;;;5053472;28;20426;-54
2022/07/27 07:32:39;;;;;;;2.73;2.53;;;26.60;99.90;;;;;;5044513;28;20442;-54
2022/07/27 07:35:07;;;;;;;3.60;3.23;;;26.70;99.90;;;;;;5045120;28;20535;-51
2022/07/27 07:37:35;;;;;;;2.87;1.87;;;28.30;99.90;;;;;;5050222;28;20525;-54
2022/07/27 07:40:03;;;;;;;2.20;2.00;;;31.40;99.90;;;;;;5044846;28;20442;-53
2022/07/27 07:42:59;;;;;;;2.40;2.20;;;33.00;99.90;;;;;;5044437;28;20531;-50
2022/07/27 07:45:36;;;;;;;2.67;2.40;;;33.10;98.80;;;;;;5043742;28;20473;-48
2022/07/27 07:48:18;;;;;;;1.70;1.60;;;32.20;99.20;;;;;;5040316;28;20664;-47
2022/07/27 07:50:45;;;;;;;3.27;2.17;;;32.70;97.60;;;;;;5040994;28;20510;-51
2022/07/27 07:53:23;;;;;;;1.70;1.60;;;32.10;98.20;;;;;;5041314;28;20475;-51
2022/07/27 07:55:51;;;;;;;4.90;2.10;;;31.00;99.30;;;;;;5029019;28;20500;-51
2022/07/27 07:58:19;;;;;;;1.87;1.77;;;30.90;99.70;;;;;;5055246;28;20589;-52
2022/07/27 08:00:46;;;;;;;1.70;1.60;;;31.00;99.00;;;;;;5049124;28;20696;-52
2022/07/27 08:03:14;;;;;;;1.60;1.30;;;30.10;99.90;;;;;;5052642;28;20451;-49
2022/07/27 08:05:41;;;;;;;1.80;1.70;;;29.50;99.90;;;;;;5050715;28;20503;-50
2022/07/27 08:08:09;;;;;;;2.47;2.27;;;30.10;99.90;;;;;;5052729;28;20452;-53
2022/07/27 08:10:36;;;;;;;2.57;2.37;;;31.60;98.00;;;;;;5053795;28;20432;-52
2022/07/27 08:13:04;;;;;;;3.13;1.73;;;30.80;98.00;;;;;;5045355;28;20438;-53
2022/07/27 08:15:31;;;;;;;2.60;2.10;;;30.60;98.50;;;;;;5052911;28;20765;-52
2022/07/27 08:18:05;;;;;;;2.30;2.10;;;31.30;97.50;;;;;;5045739;28;20458;-53
2022/07/27 08:20:33;;;;;;;2.03;1.87;;;32.10;96.00;;;;;;5054005;28;20475;-49
2022/07/27 08:23:01;;;;;;;1.83;1.40;;;31.20;96.70;;;;;;5053491;28;20496;-52
2022/07/27 08:25:28;;;;;;;2.20;1.93;;;30.20;98.20;;;;;;5053368;28;20472;-50
2022/07/27 08:27:56;;;;;;;2.40;1.60;;;29.60;98.60;;;;;;5048360;28;20819;-49
2022/07/27 08:30:23;;;;;;;3.03;1.80;;;28.60;99.90;;;;;;5041286;28;20434;-54
2022/07/27 08:32:59;;;;;;;2.20;1.70;;;28.00;99.90;;;;;;5041810;28;20457;-51
2022/07/27 08:35:28;;;;;;;2.43;2.10;;;28.90;99.90;;;;;;5042717;28;20428;-48
2022/07/27 08:37:57;;;;;;;2.23;2.03;;;28.90;99.90;;;;;;5047484;28;20457;-46
2022/07/27 08:40:24;;;;;;;2.77;1.60;;;29.10;99.90;;;;;;5045607;28;20628;-47
2022/07/27 08:43:14;;;;;;;2.20;2.00;;;30.70;98.60;;;;;;5051867;28;20685;-47
2022/07/27 08:45:55;;;;;;;2.47;2.27;;;33.00;95.00;;;;;;5047978;28;20479;-48
2022/07/27 08:48:28;;;;;;;1.90;1.80;;;34.30;92.30;;;;;;5053957;28;20467;-51
2022/07/27 08:50:55;;;;;;;1.60;1.50;;;32.30;93.90;;;;;;5047736;28;20811;-48
2022/07/27 08:53:23;;;;;;;1.70;1.60;;;30.00;96.60;;;;;;5054596;28;20532;-50
2022/07/27 08:55:50;;;;;;;3.13;1.67;;;28.30;98.40;;;;;;5047684;28;20497;-49
2022/07/27 08:58:17;;;;;;;2.27;1.37;;;27.70;99.90;;;;;;5047049;28;20465;-48
2022/07/27 09:00:48;;;;;;;3.80;2.13;;;29.60;97.50;;;;;;5069334;28;20429;-47
2022/07/27 09:03:19;;;;;;;2.00;1.90;;;31.30;95.10;;;;;;5056450;28;20742;-47
2022/07/27 09:05:54;;;;;;;1.43;1.33;;;33.00;92.10;;;;;;5047916;28;20483;-53
2022/07/27 09:08:27;;;;;;;1.40;1.30;;;33.70;87.40;;;;;;5048190;28;20439;-49
2022/07/27 09:10:58;;;;;;;2.47;2.27;;;33.60;86.30;;;;;;5052659;28;20471;-51
2022/07/27 09:13:27;;;;;;;1.40;1.30;;;32.50;87.00;;;;;;5048429;28;20644;-51
2022/07/27 09:15:58;;;;;;;4.30;1.87;;;29.90;90.50;;;;;;5050732;28;20424;-49
2022/07/27 09:18:47;;;;;;;2.70;1.43;;;28.50;92.90;;;;;;5038614;28;20499;-51
2022/07/27 09:21:15;;;;;;;3.83;1.83;;;28.40;93.20;;;;;;5041563;28;20467;-46
2022/07/27 09:23:46;;;;;;;2.30;2.10;;;28.30;93.30;;;;;;5040502;28;20620;-52
2022/07/27 09:26:18;;;;;;;3.47;1.57;;;28.90;92.80;;;;;;5040896;28;20451;-51
2022/07/27 09:29:06;;;;;;;2.60;1.63;;;28.10;94.10;;;;;;5043119;28;20581;-47
2022/07/27 09:31:50;;;;;;;4.83;2.10;;;27.20;95.60;;;;;;5047968;28;20431;-52
2022/07/27 09:34:29;;;;;;;4.33;2.90;;;26.70;97.90;;;;;;5046468;28;20434;-50
2022/07/27 09:36:58;;;;;;;2.40;2.20;;;26.30;99.60;;;;;;5050685;28;20780;-50
2022/07/27 09:39:27;;;;;;;4.40;2.73;;;26.60;99.60;;;;;;5030277;28;20461;-49
2022/07/27 09:41:58;;;;;;;5.43;2.80;;;26.80;99.60;;;;;;5049879;28;20432;-49
2022/07/27 09:44:36;;;;;;;3.57;2.83;;;26.70;99.90;;;;;;5048517;28;20460;-46
2022/07/27 09:47:27;;;;;;;3.13;2.83;;;26.50;99.90;;;;;;5026119;28;20489;-48
2022/07/27 09:50:16;;;;;;;3.67;3.20;;;26.00;99.90;;;;;;5041542;28;20624;-49
2022/07/27 09:52:44;;;;;;;3.40;3.10;;;25.70;99.90;;;;;;5047757;28;20433;-47
2022/07/27 09:55:11;;;;;;;4.63;3.70;;;25.20;99.90;;;;;;5043424;28;20452;-47
2022/07/27 09:57:52;;;;;;;2.90;2.60;;;25.00;99.90;;;;;;5048989;28;20467;-48
2022/07/27 10:00:22;;;;;;;2.80;2.60;;;25.10;99.90;;;;;;5052067;28;20436;-48
2022/07/27 10:02:51;;;;;;;2.03;1.90;;;25.20;99.90;;;;;;5047804;28;20437;-49
2022/07/27 10:05:21;;;;;;;6.27;2.33;;;25.20;99.90;;;;;;5052961;28;20511;-53
2022/07/27 10:07:53;;;;;;;1.83;1.73;;;25.30;99.90;;;;;;5047344;28;20448;-47
2022/07/27 10:10:22;;;;;;;3.00;2.00;;;25.40;99.90;;;;;;5053833;28;20434;-49
2022/07/27 10:12:51;;;;;;;5.63;3.27;;;25.30;99.90;;;;;;5043897;28;20571;-51
2022/07/27 10:15:23;;;;;;;6.97;2.20;;;25.00;99.90;;;;;;5040873;28;20525;-49
2022/07/27 10:17:59;;;;;;;3.83;3.30;;;25.20;99.90;;;;;;5046417;28;20483;-49
2022/07/27 10:20:31;;;;;;;3.37;3.07;;;25.30;99.90;;;;;;5043586;28;20720;-48
2022/07/27 10:22:59;;;;;;;2.47;2.20;;;25.40;99.90;;;;;;5044437;28;20488;-49
2022/07/27 10:25:29;;;;;;;5.43;2.27;;;25.60;99.90;;;;;;5043920;28;20540;-47
2022/07/27 10:28:12;;;;;;;2.00;1.90;;;25.70;99.90;;;;;;5041971;28;20461;-50
2022/07/27 10:30:39;;;;;;;1.90;1.80;;;25.90;99.90;;;;;;5044389;28;20437;-50
2022/07/27 10:33:43;;;;;;;3.00;2.30;;;26.20;99.90;;;;;;5020891;28;20463;-47
2022/07/27 10:36:15;;;;;;;1.93;1.73;;;26.70;99.90;;;;;;5053804;28;20460;-48
2022/07/27 10:38:57;;;;;;;2.60;1.90;;;26.20;99.90;;;;;;5049112;28;20689;-46
2022/07/27 10:41:28;;;;;;;3.00;1.87;;;26.10;99.90;;;;;;5051738;28;20427;-45
2022/07/27 10:44:13;;;;;;;2.67;1.50;;;25.60;99.90;;;;;;5046337;28;20462;-46
2022/07/27 10:46:52;;;;;;;2.50;1.80;;;25.10;99.90;;;;;;5053966;28;20531;-47
2022/07/27 10:49:25;;;;;;;2.30;1.87;;;25.00;99.90;;;;;;5050913;28;20396;-47
2022/07/27 10:51:54;;;;;;;2.00;1.67;;;25.10;99.90;;;;;;5047094;28;20494;-47
2022/07/27 10:54:35;;;;;;;1.83;1.47;;;25.20;99.90;;;;;;5026638;28;20432;-48
2022/07/27 10:57:04;;;;;;;2.10;1.70;;;25.00;99.90;;;;;;5048668;28;20450;-50
2022/07/27 10:59:38;;;;;;;5.13;1.60;;;25.10;99.90;;;;;;5052172;28;20438;-50
2022/07/27 11:02:39;;;;;;;1.73;1.63;;;25.40;99.90;;;;;;5052843;28;20413;-47
2022/07/27 11:05:10;;;;;;;3.20;1.60;;;25.90;99.00;;;;;;5054352;28;20973;-49
2022/07/27 11:07:58;;;;;;;2.10;1.20;;;25.90;98.80;;;;;;5050550;28;20808;-54
2022/07/27 11:10:47;;;;;;;1.63;1.30;;;26.10;98.60;;;;;;5044657;28;20596;-48
2022/07/27 11:13:18;;;;;;;2.40;2.20;;;26.20;97.80;;;;;;5045674;28;20463;-51
2022/07/27 11:15:57;;;;;;;1.67;1.57;;;26.20;98.00;;;;;;5042572;28;20417;-49
2022/07/27 11:18:55;;;;;;;1.30;1.20;;;26.30;98.10;;;;;;5042451;28;20608;-49
2022/07/27 11:21:27;;;;;;;2.80;2.07;;;26.70;97.00;;;;;;5042982;28;20442;-46
2022/07/27 11:24:08;;;;;;;1.60;1.40;;;27.40;96.10;;;;;;5046334;28;20423;-49
2022/07/27 11:26:41;;;;;;;1.40;1.30;;;27.30;96.00;;;;;;5042654;28;20546;-50
2022/07/27 11:29:11;;;;;;;2.37;1.10;;;27.30;96.30;;;;;;5040108;28;20448;-50
2022/07/27 11:31:40;;;;;;;2.37;1.40;;;27.20;95.20;;;;;;5050481;28;20465;-51
2022/07/27 11:34:30;;;;;;;1.70;1.60;;;26.80;95.30;;;;;;5043767;28;20436;-53
2022/07/27 11:37:01;;;;;;;2.30;1.63;;;26.90;95.90;;;;;;5060805;28;20460;-47
2022/07/27 11:39:31;;;;;;;2.53;2.23;;;26.90;95.40;;;;;;5046638;28;20446;-56
2022/07/27 11:42:19;;;;;;;1.70;1.60;;;26.80;95.40;;;;;;5046125;28;20432;-49
2022/07/27 11:44:51;;;;;;;2.00;1.80;;;27.00;95.50;;;;;;5047876;28;20479;-49
2022/07/27 11:47:20;;;;;;;7.23;1.90;;;27.00;95.20;;;;;;5050167;28;21076;-49
2022/07/27 11:49:47;;;;;;;2.20;1.57;;;26.70;95.20;;;;;;5048583;28;20408;-52
2022/07/27 11:52:16;;;;;;;1.73;1.53;;;26.70;94.90;;;;;;5046316;28;20463;-52
2022/07/27 11:54:50;;;;;;;3.13;1.57;;;26.20;95.80;;;;;;5052013;28;20809;-52
2022/07/27 11:57:21;;;;;;;1.77;1.30;;;26.00;95.90;;;;;;5047705;28;20446;-51
2022/07/27 11:59:48;;;;;;;3.83;1.37;;;25.70;96.40;;;;;;5045614;28;20663;-50
2022/07/27 12:02:18;;;;;;;3.83;2.07;;;25.40;97.00;;;;;;5050668;28;20437;-47
2022/07/27 12:04:48;;;;;;;2.93;1.50;;;25.20;97.90;;;;;;5046412;28;20771;-53
2022/07/27 12:07:18;;;;;;;4.13;1.60;;;25.10;97.50;;;;;;5053008;28;20473;-50
2022/07/27 12:09:51;;;;;;;2.33;1.90;;;25.00;98.30;;;;;;5048103;28;20433;-48
2022/07/27 12:12:27;;;;;;;1.80;1.53;;;25.10;98.30;;;;;;5050522;28;20399;-55
2022/07/27 12:15:01;;;;;;;1.90;1.50;;;25.00;97.90;;;;;;5049061;28;20411;-51
2022/07/27 12:17:55;;;;;;;2.60;1.87;;;24.70;98.60;;;;;;5049339;28;20444;-50
2022/07/27 12:20:31;;;;;;;1.90;1.60;;;24.70;98.70;;;;;;5049794;28;20460;-50
2022/07/27 12:23:04;;;;;;;1.07;1.00;;;24.60;99.20;;;;;;5053875;28;20408;-53
2022/07/27 12:25:32;;;;;;;3.70;1.80;;;24.70;99.30;;;;;;5053896;28;20466;-49
2022/07/27 12:28:05;;;;;;;3.63;1.40;;;24.70;98.80;;;;;;5048793;28;20455;-50
2022/07/27 12:30:35;;;;;;;1.97;1.60;;;24.80;98.60;;;;;;5048987;28;20556;-53
2022/07/27 12:33:06;;;;;;;1.33;1.07;;;24.80;98.40;;;;;;5048678;28;20432;-48
2022/07/27 12:35:45;;;;;;;1.50;1.23;;;25.00;97.80;;;;;;5058764;28;20411;-51
2022/07/27 12:38:13;;;;;;;3.40;1.50;;;25.20;97.90;;;;;;5052733;28;20749;-49
2022/07/27 12:40:52;;;;;;;4.13;1.43;;;25.00;97.40;;;;;;5049890;28;20899;-50
2022/07/27 12:43:26;;;;;;;2.60;1.80;;;24.60;97.50;;;;;;5032393;28;20748;-53
2022/07/27 12:45:54;;;;;;;1.67;1.57;;;24.20;98.20;;;;;;5047235;28;20461;-48
2022/07/27 12:48:38;;;;;;;3.23;1.50;;;24.00;98.10;;;;;;5048417;28;20450;-51
2022/07/27 12:51:07;;;;;;;11.77;2.90;;;23.80;98.40;;;;;;5051614;28;20474;-51
2022/07/27 12:53:37;;;;;;;2.80;1.80;;;23.80;98.50;;;;;;5045362;28;20477;-53
2022/07/27 12:56:07;;;;;;;2.87;1.40;;;23.60;98.40;;;;;;5041055;28;20419;-49
2022/07/27 12:58:36;;;;;;;4.60;1.33;;;23.60;98.60;;;;;;5061269;28;20415;-48
2022/07/27 13:01:03;;;;;;;1.73;1.00;;;23.60;98.60;;;;;;5049907;28;20434;-49
2022/07/27 13:03:31;;;;;;;1.20;1.10;;;23.60;98.80;;;;;;5052534;28;20788;-50